sensor_id;sensor_type;location;lat;lon;timestamp;pressure;altitude;pressure_sealevel;temperature;humidity
21096;BME280;10706;49.036;12.112;2022-07-19T00:00:31;98242.50;;;17.62;61.70
21096;BME280;10706;49.036;12.112;2022-07-19T00:02:57;98245.19;;;17.57;62.26
21096;BME280;10706;49.036;12.112;2022-07-19T00:05:23;98251.41;;;17.52;62.65
21096;BME280;10706;49.036;12.112;2022-07-19T00:07:49;98250.06;;;17.49;63.36
21096;BME280;10706;49.036;12.112;2022-07-19T00:10:17;98249.50;;;17.42;63.73
21096;BME280;10706;49.036;12.112;2022-07-19T00:12:44;98241.91;;;17.34;64.56
21096;BME280;10706;49.036;12.112;2022-07-19T00:15:12;98242.72;;;17.29;65.24
21096;BME280;10706;49.036;12.112;2022-07-19T00:17:41;98237.63;;;17.38;65.19
21096;BME280;10706;49.036;12.112;2022-07-19T00:20:11;98241.91;;;17.34;65.82
21096;BME280;10706;49.036;12.112;2022-07-19T00:22:37;98245.94;;;17.26;65.93
21096;BME280;10706;49.036;12.112;2022-07-19T00:25:04;98229.75;;;17.21;64.91
21096;BME280;10706;49.036;12.112;2022-07-19T00:27:30;98242.69;;;17.14;65.46
21096;BME280;10706;49.036;12.112;2022-07-19T00:29:56;98245.88;;;17.06;65.33
21096;BME280;10706;49.036;12.112;2022-07-19T00:32:22;98245.59;;;16.97;66.29
21096;BME280;10706;49.036;12.112;2022-07-19T00:34:48;98249.06;;;16.93;66.23
21096;BME280;10706;49.036;12.112;2022-07-19T00:37:13;98240.16;;;16.87;66.65
21096;BME280;10706;49.036;12.112;2022-07-19T00:39:39;98243.13;;;16.90;66.41
21096;BME280;10706;49.036;12.112;2022-07-19T00:42:05;98241.25;;;16.86;67.04
21096;BME280;10706;49.036;12.112;2022-07-19T00:44:30;98247.91;;;16.78;67.02
21096;BME280;10706;49.036;12.112;2022-07-19T00:46:56;98242.22;;;16.69;67.94
21096;BME280;10706;49.036;12.112;2022-07-19T00:49:24;98236.81;;;16.69;67.67
21096;BME280;10706;49.036;12.112;2022-07-19T00:51:51;98239.19;;;16.61;68.02
21096;BME280;10706;49.036;12.112;2022-07-19T00:54:19;98239.72;;;16.58;68.13
21096;BME280;10706;49.036;12.112;2022-07-19T00:56:49;98244.78;;;16.49;68.95
21096;BME280;10706;49.036;12.112;2022-07-19T00:59:16;98241.00;;;16.45;69.52
21096;BME280;10706;49.036;12.112;2022-07-19T01:01:43;98243.09;;;16.38;69.24
21096;BME280;10706;49.036;12.112;2022-07-19T01:04:11;98247.44;;;16.39;69.92
21096;BME280;10706;49.036;12.112;2022-07-19T01:06:37;98247.34;;;16.28;69.27
21096;BME280;10706;49.036;12.112;2022-07-19T01:09:03;98245.16;;;16.25;69.58
21096;BME280;10706;49.036;12.112;2022-07-19T01:11:30;98247.88;;;16.25;68.94
21096;BME280;10706;49.036;12.112;2022-07-19T01:13:55;98248.94;;;16.24;70.01
21096;BME280;10706;49.036;12.112;2022-07-19T01:16:21;98249.72;;;16.20;70.86
21096;BME280;10706;49.036;12.112;2022-07-19T01:18:47;98247.06;;;16.25;69.66
21096;BME280;10706;49.036;12.112;2022-07-19T01:21:22;98240.41;;;16.38;68.83
21096;BME280;10706;49.036;12.112;2022-07-19T01:23:49;98246.88;;;16.37;69.05
21096;BME280;10706;49.036;12.112;2022-07-19T01:26:15;98242.75;;;16.24;68.83
21096;BME280;10706;49.036;12.112;2022-07-19T01:28:42;98244.06;;;16.16;69.20
21096;BME280;10706;49.036;12.112;2022-07-19T01:31:08;98248.88;;;16.14;69.88
21096;BME280;10706;49.036;12.112;2022-07-19T01:33:45;98248.59;;;16.10;69.89
21096;BME280;10706;49.036;12.112;2022-07-19T01:36:11;98248.56;;;16.05;70.07
21096;BME280;10706;49.036;12.112;2022-07-19T01:38:37;98237.47;;;16.02;70.52
21096;BME280;10706;49.036;12.112;2022-07-19T01:41:04;98252.53;;;15.98;70.83
21096;BME280;10706;49.036;12.112;2022-07-19T01:43:31;98256.53;;;15.95;70.94
21096;BME280;10706;49.036;12.112;2022-07-19T01:45:57;98254.94;;;15.94;70.74
21096;BME280;10706;49.036;12.112;2022-07-19T01:48:24;98263.00;;;15.94;71.45
21096;BME280;10706;49.036;12.112;2022-07-19T01:50:50;98256.78;;;15.88;71.55
21096;BME280;10706;49.036;12.112;2022-07-19T01:53:16;98264.81;;;15.83;71.69
21096;BME280;10706;49.036;12.112;2022-07-19T01:55:41;98254.81;;;15.79;72.55
21096;BME280;10706;49.036;12.112;2022-07-19T01:58:07;98260.38;;;15.72;71.70
21096;BME280;10706;49.036;12.112;2022-07-19T02:00:33;98251.13;;;15.63;72.40
21096;BME280;10706;49.036;12.112;2022-07-19T02:02:59;98252.69;;;15.59;72.96
21096;BME280;10706;49.036;12.112;2022-07-19T02:05:24;98249.72;;;15.55;73.37
21096;BME280;10706;49.036;12.112;2022-07-19T02:07:50;98249.41;;;15.51;72.40
21096;BME280;10706;49.036;12.112;2022-07-19T02:10:18;98255.88;;;15.50;72.97
21096;BME280;10706;49.036;12.112;2022-07-19T02:12:44;98255.81;;;15.45;73.75
21096;BME280;10706;49.036;12.112;2022-07-19T02:15:10;98251.03;;;15.52;73.37
21096;BME280;10706;49.036;12.112;2022-07-19T02:17:36;98253.13;;;15.45;73.79
21096;BME280;10706;49.036;12.112;2022-07-19T02:20:04;98252.00;;;15.41;74.00
21096;BME280;10706;49.036;12.112;2022-07-19T02:22:30;98252.41;;;15.55;72.61
21096;BME280;10706;49.036;12.112;2022-07-19T02:24:55;98249.31;;;15.41;73.59
21096;BME280;10706;49.036;12.112;2022-07-19T02:27:21;98255.38;;;15.31;74.07
21096;BME280;10706;49.036;12.112;2022-07-19T02:29:48;98259.16;;;15.30;74.00
21096;BME280;10706;49.036;12.112;2022-07-19T02:32:14;98243.72;;;15.21;74.60
21096;BME280;10706;49.036;12.112;2022-07-19T02:34:40;98259.00;;;15.15;74.59
21096;BME280;10706;49.036;12.112;2022-07-19T02:37:06;98250.84;;;15.10;75.23
21096;BME280;10706;49.036;12.112;2022-07-19T02:39:32;98258.84;;;15.05;75.15
21096;BME280;10706;49.036;12.112;2022-07-19T02:41:57;98257.50;;;15.02;74.66
21096;BME280;10706;49.036;12.112;2022-07-19T02:44:23;98255.81;;;14.96;74.77
21096;BME280;10706;49.036;12.112;2022-07-19T02:46:49;98265.97;;;14.94;75.10
21096;BME280;10706;49.036;12.112;2022-07-19T02:49:15;98262.72;;;14.92;75.82
21096;BME280;10706;49.036;12.112;2022-07-19T02:51:41;98265.25;;;14.99;75.23
21096;BME280;10706;49.036;12.112;2022-07-19T02:54:07;98259.72;;;14.88;75.74
21096;BME280;10706;49.036;12.112;2022-07-19T02:56:32;98261.75;;;14.98;74.40
21096;BME280;10706;49.036;12.112;2022-07-19T02:58:59;98261.69;;;14.93;75.02
21096;BME280;10706;49.036;12.112;2022-07-19T03:01:24;98264.84;;;14.90;74.84
21096;BME280;10706;49.036;12.112;2022-07-19T03:03:50;98259.69;;;14.83;75.37
21096;BME280;10706;49.036;12.112;2022-07-19T03:06:18;98259.63;;;14.78;75.74
21096;BME280;10706;49.036;12.112;2022-07-19T03:08:46;98261.91;;;14.69;75.66
21096;BME280;10706;49.036;12.112;2022-07-19T03:11:12;98262.34;;;14.61;75.76
21096;BME280;10706;49.036;12.112;2022-07-19T03:13:38;98259.22;;;14.52;75.98
21096;BME280;10706;49.036;12.112;2022-07-19T03:16:05;98256.88;;;14.56;76.29
21096;BME280;10706;49.036;12.112;2022-07-19T03:18:31;98263.31;;;14.55;75.70
21096;BME280;10706;49.036;12.112;2022-07-19T03:20:57;98254.69;;;14.53;75.92
21096;BME280;10706;49.036;12.112;2022-07-19T03:23:35;98250.84;;;14.49;75.99
21096;BME280;10706;49.036;12.112;2022-07-19T03:26:03;98266.38;;;14.42;76.87
21096;BME280;10706;49.036;12.112;2022-07-19T03:28:29;98260.38;;;14.39;76.53
21096;BME280;10706;49.036;12.112;2022-07-19T03:30:54;98263.16;;;14.45;76.48
21096;BME280;10706;49.036;12.112;2022-07-19T03:33:20;98267.50;;;14.46;76.22
21096;BME280;10706;49.036;12.112;2022-07-19T03:35:47;98266.75;;;14.33;76.13
21096;BME280;10706;49.036;12.112;2022-07-19T03:38:14;98272.31;;;14.27;77.30
21096;BME280;10706;49.036;12.112;2022-07-19T03:40:41;98274.69;;;14.23;76.66
21096;BME280;10706;49.036;12.112;2022-07-19T03:43:07;98278.16;;;14.24;76.51
21096;BME280;10706;49.036;12.112;2022-07-19T03:45:33;98267.91;;;14.20;76.14
21096;BME280;10706;49.036;12.112;2022-07-19T03:47:59;98274.69;;;14.23;76.82
21096;BME280;10706;49.036;12.112;2022-07-19T03:50:26;98273.56;;;14.19;76.01
21096;BME280;10706;49.036;12.112;2022-07-19T03:52:52;98280.53;;;14.20;76.15
21096;BME280;10706;49.036;12.112;2022-07-19T03:55:18;98275.97;;;14.20;76.29
21096;BME280;10706;49.036;12.112;2022-07-19T03:57:44;98276.72;;;14.16;76.91
21096;BME280;10706;49.036;12.112;2022-07-19T04:00:10;98281.84;;;14.17;76.35
21096;BME280;10706;49.036;12.112;2022-07-19T04:02:36;98283.69;;;14.17;76.79
21096;BME280;10706;49.036;12.112;2022-07-19T04:05:02;98281.53;;;14.14;76.30
21096;BME280;10706;49.036;12.112;2022-07-19T04:07:27;98279.63;;;14.14;76.27
21096;BME280;10706;49.036;12.112;2022-07-19T04:09:53;98285.81;;;14.15;76.26
21096;BME280;10706;49.036;12.112;2022-07-19T04:12:19;98283.13;;;14.15;76.88
21096;BME280;10706;49.036;12.112;2022-07-19T04:14:45;98291.19;;;14.15;77.50
21096;BME280;10706;49.036;12.112;2022-07-19T04:17:10;98290.56;;;14.08;76.64
21096;BME280;10706;49.036;12.112;2022-07-19T04:19:36;98290.56;;;14.08;77.19
21096;BME280;10706;49.036;12.112;2022-07-19T04:22:02;98287.13;;;14.12;77.21
21096;BME280;10706;49.036;12.112;2022-07-19T04:24:28;98290.38;;;14.14;77.47
21096;BME280;10706;49.036;12.112;2022-07-19T04:26:54;98289.56;;;14.14;77.45
21096;BME280;10706;49.036;12.112;2022-07-19T04:29:48;98288.78;;;14.13;77.84
21096;BME280;10706;49.036;12.112;2022-07-19T04:35:25;98296.41;;;14.22;76.99
21096;BME280;10706;49.036;12.112;2022-07-19T04:37:51;98300.78;;;14.28;77.21
21096;BME280;10706;49.036;12.112;2022-07-19T04:40:16;98295.75;;;14.31;77.30
21096;BME280;10706;49.036;12.112;2022-07-19T04:42:42;98292.81;;;14.33;76.83
21096;BME280;10706;49.036;12.112;2022-07-19T04:45:08;98299.66;;;14.41;76.95
21096;BME280;10706;49.036;12.112;2022-07-19T04:47:34;98293.56;;;14.45;76.05
21096;BME280;10706;49.036;12.112;2022-07-19T04:50:00;98297.13;;;14.68;72.77
21096;BME280;10706;49.036;12.112;2022-07-19T04:52:26;98292.06;;;14.93;70.82
21096;BME280;10706;49.036;12.112;2022-07-19T04:54:52;98295.31;;;15.18;69.35
21096;BME280;10706;49.036;12.112;2022-07-19T04:57:17;98301.09;;;15.26;69.08
21096;BME280;10706;49.036;12.112;2022-07-19T04:59:43;98297.06;;;15.29;70.01
21096;BME280;10706;49.036;12.112;2022-07-19T05:02:09;98304.69;;;15.37;69.53
21096;BME280;10706;49.036;12.112;2022-07-19T05:04:34;98301.34;;;15.52;69.81
21096;BME280;10706;49.036;12.112;2022-07-19T05:07:00;98304.34;;;15.55;70.44
21096;BME280;10706;49.036;12.112;2022-07-19T05:09:28;98306.03;;;15.62;70.00
21096;BME280;10706;49.036;12.112;2022-07-19T05:11:55;98308.59;;;15.73;69.52
21096;BME280;10706;49.036;12.112;2022-07-19T05:14:21;98300.53;;;16.06;67.88
21096;BME280;10706;49.036;12.112;2022-07-19T05:16:47;98299.78;;;16.10;68.44
21096;BME280;10706;49.036;12.112;2022-07-19T05:19:16;98295.81;;;16.18;68.21
21096;BME280;10706;49.036;12.112;2022-07-19T05:21:42;98296.97;;;16.27;68.03
21096;BME280;10706;49.036;12.112;2022-07-19T05:24:08;98296.22;;;16.37;67.19
21096;BME280;10706;49.036;12.112;2022-07-19T05:26:34;98292.25;;;16.55;67.53
21096;BME280;10706;49.036;12.112;2022-07-19T05:29:02;98294.00;;;16.71;66.16
21096;BME280;10706;49.036;12.112;2022-07-19T05:31:28;98281.63;;;16.81;65.58
21096;BME280;10706;49.036;12.112;2022-07-19T05:33:55;98282.78;;;16.90;65.96
21096;BME280;10706;49.036;12.112;2022-07-19T05:36:20;98276.88;;;16.98;65.74
21096;BME280;10706;49.036;12.112;2022-07-19T05:38:58;98278.56;;;17.15;65.21
21096;BME280;10706;49.036;12.112;2022-07-19T05:41:24;98281.88;;;17.27;65.02
21096;BME280;10706;49.036;12.112;2022-07-19T05:43:54;98280.81;;;17.48;63.45
21096;BME280;10706;49.036;12.112;2022-07-19T05:46:22;98273.00;;;17.62;62.36
21096;BME280;10706;49.036;12.112;2022-07-19T05:48:48;98277.09;;;17.80;62.31
21096;BME280;10706;49.036;12.112;2022-07-19T05:51:14;98269.03;;;17.96;63.15
21096;BME280;10706;49.036;12.112;2022-07-19T05:53:40;98277.69;;;18.08;61.82
21096;BME280;10706;49.036;12.112;2022-07-19T05:56:07;98282.28;;;18.18;61.02
21096;BME280;10706;49.036;12.112;2022-07-19T05:58:33;98276.03;;;18.33;61.07
21096;BME280;10706;49.036;12.112;2022-07-19T06:01:01;98277.38;;;18.35;60.42
21096;BME280;10706;49.036;12.112;2022-07-19T06:03:55;98286.84;;;18.48;59.92
21096;BME280;10706;49.036;12.112;2022-07-19T06:06:23;98284.63;;;18.71;59.37
21096;BME280;10706;49.036;12.112;2022-07-19T06:08:52;98285.44;;;18.87;59.00
21096;BME280;10706;49.036;12.112;2022-07-19T06:11:18;98285.66;;;18.95;59.16
21096;BME280;10706;49.036;12.112;2022-07-19T06:13:45;98283.97;;;19.10;57.89
21096;BME280;10706;49.036;12.112;2022-07-19T06:16:15;98284.72;;;19.26;57.78
21096;BME280;10706;49.036;12.112;2022-07-19T06:18:41;98282.22;;;19.39;57.75
21096;BME280;10706;49.036;12.112;2022-07-19T06:21:11;98282.69;;;19.52;57.65
21096;BME280;10706;49.036;12.112;2022-07-19T06:23:39;98275.28;;;19.68;56.15
21096;BME280;10706;49.036;12.112;2022-07-19T06:26:07;98280.66;;;19.78;54.58
21096;BME280;10706;49.036;12.112;2022-07-19T06:28:33;98278.31;;;20.00;56.09
21096;BME280;10706;49.036;12.112;2022-07-19T06:30:59;98276.66;;;20.34;55.69
21096;BME280;10706;49.036;12.112;2022-07-19T06:33:25;98277.22;;;20.65;55.21
21096;BME280;10706;49.036;12.112;2022-07-19T06:35:54;98272.69;;;20.80;53.92
21096;BME280;10706;49.036;12.112;2022-07-19T06:38:23;98279.34;;;20.92;54.23
21096;BME280;10706;49.036;12.112;2022-07-19T06:41:03;98272.81;;;20.93;53.73
21096;BME280;10706;49.036;12.112;2022-07-19T06:43:42;98273.53;;;21.04;53.27
21096;BME280;10706;49.036;12.112;2022-07-19T06:46:11;98270.88;;;21.18;51.81
21096;BME280;10706;49.036;12.112;2022-07-19T06:49:11;98263.72;;;21.27;51.68
21096;BME280;10706;49.036;12.112;2022-07-19T06:51:37;98268.63;;;21.25;50.83
21096;BME280;10706;49.036;12.112;2022-07-19T06:54:03;98262.00;;;21.31;50.57
21096;BME280;10706;49.036;12.112;2022-07-19T06:56:29;98275.47;;;21.42;51.11
21096;BME280;10706;49.036;12.112;2022-07-19T06:58:55;98274.91;;;21.45;49.83
21096;BME280;10706;49.036;12.112;2022-07-19T07:01:27;98272.56;;;21.57;49.94
21096;BME280;10706;49.036;12.112;2022-07-19T07:04:14;98274.84;;;21.69;48.51
21096;BME280;10706;49.036;12.112;2022-07-19T07:06:43;98270.00;;;21.85;49.33
21096;BME280;10706;49.036;12.112;2022-07-19T07:09:44;98271.56;;;22.05;49.45
21096;BME280;10706;49.036;12.112;2022-07-19T07:12:43;98269.47;;;22.16;47.18
21096;BME280;10706;49.036;12.112;2022-07-19T07:15:09;98276.13;;;22.42;47.97
21096;BME280;10706;49.036;12.112;2022-07-19T07:17:36;98274.16;;;22.62;46.51
21096;BME280;10706;49.036;12.112;2022-07-19T07:20:17;98274.16;;;22.76;48.49
21096;BME280;10706;49.036;12.112;2022-07-19T08:10:39;98245.31;;;24.74;42.55
21096;BME280;10706;49.036;12.112;2022-07-19T08:24:06;98226.28;;;25.09;42.73
21096;BME280;10706;49.036;12.112;2022-07-19T08:26:48;98226.00;;;25.28;41.31
21096;BME280;10706;49.036;12.112;2022-07-19T08:31:46;98225.84;;;25.51;41.41
21096;BME280;10706;49.036;12.112;2022-07-19T08:51:08;98215.06;;;26.07;40.19
21096;BME280;10706;49.036;12.112;2022-07-19T08:53:35;98210.75;;;26.44;40.84
21096;BME280;10706;49.036;12.112;2022-07-19T08:56:03;98205.19;;;26.32;37.17
21096;BME280;10706;49.036;12.112;2022-07-19T08:58:49;98211.75;;;26.31;38.23
21096;BME280;10706;49.036;12.112;2022-07-19T09:01:15;98211.84;;;26.52;38.77
21096;BME280;10706;49.036;12.112;2022-07-19T09:04:18;98208.69;;;26.80;38.56
21096;BME280;10706;49.036;12.112;2022-07-19T09:06:56;98214.34;;;27.04;39.73
21096;BME280;10706;49.036;12.112;2022-07-19T09:09:27;98208.91;;;27.25;36.29
21096;BME280;10706;49.036;12.112;2022-07-19T09:11:57;98208.72;;;27.30;37.24
21096;BME280;10706;49.036;12.112;2022-07-19T09:14:26;98201.03;;;27.45;37.58
21096;BME280;10706;49.036;12.112;2022-07-19T09:19:24;98195.53;;;27.45;35.76
21096;BME280;10706;49.036;12.112;2022-07-19T09:24:29;98197.47;;;27.65;37.22
21096;BME280;10706;49.036;12.112;2022-07-19T09:27:12;98205.47;;;27.91;35.88
21096;BME280;10706;49.036;12.112;2022-07-19T09:29:46;98199.75;;;27.97;35.59
21096;BME280;10706;49.036;12.112;2022-07-19T09:32:18;98195.03;;;28.18;36.06
21096;BME280;10706;49.036;12.112;2022-07-19T09:34:56;98194.81;;;28.23;36.01
21096;BME280;10706;49.036;12.112;2022-07-19T09:37:26;98199.47;;;28.23;35.59
21096;BME280;10706;49.036;12.112;2022-07-19T09:40:05;98195.84;;;28.31;35.17
21096;BME280;10706;49.036;12.112;2022-07-19T09:42:43;98197.09;;;28.34;34.08
21096;BME280;10706;49.036;12.112;2022-07-19T09:45:12;98193.47;;;28.42;37.21
21096;BME280;10706;49.036;12.112;2022-07-19T09:47:42;98191.38;;;28.51;33.33
21096;BME280;10706;49.036;12.112;2022-07-19T09:50:15;98196.13;;;28.75;35.29
21096;BME280;10706;49.036;12.112;2022-07-19T09:52:44;98193.25;;;28.72;35.15
21096;BME280;10706;49.036;12.112;2022-07-19T09:55:11;98187.28;;;28.94;34.51
21096;BME280;10706;49.036;12.112;2022-07-19T09:57:45;98182.00;;;29.01;34.28
21096;BME280;10706;49.036;12.112;2022-07-19T10:00:14;98187.75;;;29.21;33.97
21096;BME280;10706;49.036;12.112;2022-07-19T10:02:50;98189.53;;;29.29;33.71
21096;BME280;10706;49.036;12.112;2022-07-19T10:05:16;98178.75;;;29.36;33.15
21096;BME280;10706;49.036;12.112;2022-07-19T10:07:42;98174.03;;;29.37;33.54
21096;BME280;10706;49.036;12.112;2022-07-19T10:10:11;98165.38;;;29.51;32.36
21096;BME280;10706;49.036;12.112;2022-07-19T10:12:39;98166.50;;;29.62;33.01
21096;BME280;10706;49.036;12.112;2022-07-19T10:15:07;98176.03;;;29.52;31.44
21096;BME280;10706;49.036;12.112;2022-07-19T10:17:41;98161.56;;;29.68;30.95
21096;BME280;10706;49.036;12.112;2022-07-19T10:20:18;98160.03;;;29.70;31.04
21096;BME280;10706;49.036;12.112;2022-07-19T10:22:45;98159.38;;;29.73;29.61
21096;BME280;10706;49.036;12.112;2022-07-19T10:25:12;98165.16;;;29.84;30.34
21096;BME280;10706;49.036;12.112;2022-07-19T10:27:46;98164.47;;;30.03;29.60
21096;BME280;10706;49.036;12.112;2022-07-19T10:32:53;98157.53;;;30.25;28.97
21096;BME280;10706;49.036;12.112;2022-07-19T10:35:31;98149.44;;;30.16;29.52
21096;BME280;10706;49.036;12.112;2022-07-19T10:40:48;98149.84;;;30.47;29.04
21096;BME280;10706;49.036;12.112;2022-07-19T10:43:25;98149.31;;;30.41;29.84
21096;BME280;10706;49.036;12.112;2022-07-19T10:46:13;98140.38;;;30.16;29.55
21096;BME280;10706;49.036;12.112;2022-07-19T10:48:49;98139.69;;;30.19;29.44
21096;BME280;10706;49.036;12.112;2022-07-19T10:51:33;98142.91;;;30.53;29.26
21096;BME280;10706;49.036;12.112;2022-07-19T10:54:11;98142.25;;;30.59;29.44
21096;BME280;10706;49.036;12.112;2022-07-19T10:56:39;98130.34;;;30.55;27.75
21096;BME280;10706;49.036;12.112;2022-07-19T10:59:16;98121.91;;;30.48;29.07
21096;BME280;10706;49.036;12.112;2022-07-19T11:01:56;98127.06;;;30.66;29.73
21096;BME280;10706;49.036;12.112;2022-07-19T11:04:34;98125.38;;;30.96;29.89
21096;BME280;10706;49.036;12.112;2022-07-19T11:07:17;98127.59;;;31.07;29.18
21096;BME280;10706;49.036;12.112;2022-07-19T11:09:53;98124.69;;;30.99;29.90
21096;BME280;10706;49.036;12.112;2022-07-19T11:12:36;98119.25;;;30.87;30.22
21096;BME280;10706;49.036;12.112;2022-07-19T11:15:07;98116.25;;;31.12;27.09
21096;BME280;10706;49.036;12.112;2022-07-19T11:17:34;98117.59;;;31.18;27.37
21096;BME280;10706;49.036;12.112;2022-07-19T11:20:13;98109.94;;;31.31;28.01
21096;BME280;10706;49.036;12.112;2022-07-19T11:22:45;98099.91;;;31.42;27.92
21096;BME280;10706;49.036;12.112;2022-07-19T11:25:14;98098.47;;;31.29;26.77
21096;BME280;10706;49.036;12.112;2022-07-19T11:27:46;98097.88;;;31.39;26.25
21096;BME280;10706;49.036;12.112;2022-07-19T11:50:04;98080.53;;;31.81;24.13
21096;BME280;10706;49.036;12.112;2022-07-19T11:52:52;98086.13;;;32.08;25.56
21096;BME280;10706;49.036;12.112;2022-07-19T11:55:21;98080.22;;;32.32;25.67
21096;BME280;10706;49.036;12.112;2022-07-19T11:57:49;98085.63;;;33.09;25.16
21096;BME280;10706;49.036;12.112;2022-07-19T12:00:17;98066.28;;;34.28;23.77
21096;BME280;10706;49.036;12.112;2022-07-19T12:03:17;98062.00;;;35.15;21.84
21096;BME280;10706;49.036;12.112;2022-07-19T12:06:04;98073.09;;;37.24;21.09
21096;BME280;10706;49.036;12.112;2022-07-19T12:08:41;98063.41;;;38.51;18.76
21096;BME280;10706;49.036;12.112;2022-07-19T12:11:22;98064.28;;;39.17;18.55
21096;BME280;10706;49.036;12.112;2022-07-19T12:13:53;98065.75;;;39.25;17.83
21096;BME280;10706;49.036;12.112;2022-07-19T12:16:21;98061.28;;;39.00;17.30
21096;BME280;10706;49.036;12.112;2022-07-19T12:18:56;98064.94;;;39.59;16.59
21096;BME280;10706;49.036;12.112;2022-07-19T12:24:23;98061.22;;;39.93;16.74
21096;BME280;10706;49.036;12.112;2022-07-19T12:29:26;98047.66;;;39.64;17.50
21096;BME280;10706;49.036;12.112;2022-07-19T12:31:57;98048.94;;;40.77;16.52
21096;BME280;10706;49.036;12.112;2022-07-19T12:34:23;98044.38;;;40.64;16.36
21096;BME280;10706;49.036;12.112;2022-07-19T12:36:50;98037.53;;;40.45;15.59
21096;BME280;10706;49.036;12.112;2022-07-19T12:39:28;98039.91;;;40.46;16.35
21096;BME280;10706;49.036;12.112;2022-07-19T12:44:26;98037.47;;;41.98;15.71
21096;BME280;10706;49.036;12.112;2022-07-19T12:46:53;98027.34;;;40.54;16.65
21096;BME280;10706;49.036;12.112;2022-07-19T12:51:54;98031.91;;;41.61;16.51
21096;BME280;10706;49.036;12.112;2022-07-19T12:54:20;98018.75;;;42.24;15.05
21096;BME280;10706;49.036;12.112;2022-07-19T12:56:47;98021.72;;;42.62;14.86
21096;BME280;10706;49.036;12.112;2022-07-19T12:59:15;98021.44;;;42.73;14.85
21096;BME280;10706;49.036;12.112;2022-07-19T13:02:00;98006.34;;;39.52;16.74
21096;BME280;10706;49.036;12.112;2022-07-19T13:04:26;98012.56;;;40.74;16.76
21096;BME280;10706;49.036;12.112;2022-07-19T13:06:51;98008.22;;;41.46;15.93
21096;BME280;10706;49.036;12.112;2022-07-19T13:09:17;98006.47;;;42.18;15.41
21096;BME280;10706;49.036;12.112;2022-07-19T13:11:43;98016.31;;;42.09;15.88
21096;BME280;10706;49.036;12.112;2022-07-19T13:14:09;98013.16;;;41.74;15.36
21096;BME280;10706;49.036;12.112;2022-07-19T13:16:37;98008.69;;;40.88;16.35
21096;BME280;10706;49.036;12.112;2022-07-19T13:19:02;97993.38;;;38.38;17.92
21096;BME280;10706;49.036;12.112;2022-07-19T13:21:29;97992.56;;;38.76;18.20
21096;BME280;10706;49.036;12.112;2022-07-19T13:23:55;97990.44;;;38.53;18.71
21096;BME280;10706;49.036;12.112;2022-07-19T13:26:20;97987.53;;;39.25;18.27
21096;BME280;10706;49.036;12.112;2022-07-19T13:28:46;97979.47;;;40.05;17.09
21096;BME280;10706;49.036;12.112;2022-07-19T13:31:12;97983.63;;;39.97;17.66
21096;BME280;10706;49.036;12.112;2022-07-19T13:33:38;97983.78;;;39.86;16.57
21096;BME280;10706;49.036;12.112;2022-07-19T13:36:04;97977.94;;;38.64;17.78
21096;BME280;10706;49.036;12.112;2022-07-19T13:38:31;97982.13;;;38.07;18.00
21096;BME280;10706;49.036;12.112;2022-07-19T13:40:57;97974.63;;;36.82;20.27
21096;BME280;10706;49.036;12.112;2022-07-19T13:43:23;97979.06;;;36.75;20.12
21096;BME280;10706;49.036;12.112;2022-07-19T13:45:51;97980.56;;;36.91;20.32
21096;BME280;10706;49.036;12.112;2022-07-19T13:48:18;97969.66;;;37.22;19.50
21096;BME280;10706;49.036;12.112;2022-07-19T13:50:44;97960.63;;;38.08;19.08
21096;BME280;10706;49.036;12.112;2022-07-19T13:53:10;97967.81;;;38.78;17.43
21096;BME280;10706;49.036;12.112;2022-07-19T13:55:35;97959.97;;;38.31;18.06
21096;BME280;10706;49.036;12.112;2022-07-19T13:58:01;97961.59;;;37.38;19.05
21096;BME280;10706;49.036;12.112;2022-07-19T14:00:28;97949.06;;;38.06;18.77
21096;BME280;10706;49.036;12.112;2022-07-19T14:02:53;97953.28;;;38.90;17.11
21096;BME280;10706;49.036;12.112;2022-07-19T14:05:19;97945.03;;;39.64;17.31
21096;BME280;10706;49.036;12.112;2022-07-19T14:07:45;97942.34;;;40.25;17.06
21096;BME280;10706;49.036;12.112;2022-07-19T14:10:11;97947.72;;;41.12;16.48
21096;BME280;10706;49.036;12.112;2022-07-19T14:12:36;97945.84;;;41.58;15.54
21096;BME280;10706;49.036;12.112;2022-07-19T14:15:03;97937.78;;;42.22;15.07
21096;BME280;10706;49.036;12.112;2022-07-19T14:17:29;97933.41;;;42.50;14.51
21096;BME280;10706;49.036;12.112;2022-07-19T14:19:55;97928.59;;;42.34;15.90
21096;BME280;10706;49.036;12.112;2022-07-19T14:22:21;97931.88;;;42.88;14.17
21096;BME280;10706;49.036;12.112;2022-07-19T14:24:47;97926.25;;;42.75;14.16
21096;BME280;10706;49.036;12.112;2022-07-19T14:27:12;97917.53;;;41.69;15.52
21096;BME280;10706;49.036;12.112;2022-07-19T14:29:38;97925.22;;;39.28;16.01
21096;BME280;10706;49.036;12.112;2022-07-19T14:32:05;97917.81;;;37.35;17.76
21096;BME280;10706;49.036;12.112;2022-07-19T14:34:31;97920.78;;;37.66;18.90
21096;BME280;10706;49.036;12.112;2022-07-19T14:36:57;97912.47;;;37.03;17.91
21096;BME280;10706;49.036;12.112;2022-07-19T14:39:23;97924.31;;;36.40;18.86
21096;BME280;10706;49.036;12.112;2022-07-19T14:41:49;97912.06;;;36.09;20.47
21096;BME280;10706;49.036;12.112;2022-07-19T14:44:14;97906.56;;;35.62;21.05
21096;BME280;10706;49.036;12.112;2022-07-19T14:46:40;97908.09;;;34.91;22.81
21096;BME280;10706;49.036;12.112;2022-07-19T14:49:06;97904.34;;;34.44;22.85
21096;BME280;10706;49.036;12.112;2022-07-19T14:51:32;97895.59;;;34.31;22.18
21096;BME280;10706;49.036;12.112;2022-07-19T14:53:58;97902.78;;;33.73;22.28
21096;BME280;10706;49.036;12.112;2022-07-19T14:56:26;97903.31;;;33.45;23.32
21096;BME280;10706;49.036;12.112;2022-07-19T14:58:53;97893.69;;;33.24;23.94
21096;BME280;10706;49.036;12.112;2022-07-19T15:01:19;97888.91;;;33.21;25.24